Bismarck, North Dakota
Current Conditions -  °F | °C
As of 8:52 PM on Wednesday 22 Oct 2014 (Local Time) from KBIS Reporting Station
Clear Clear  
Wind Chill: 52°   Ceiling: Unl
Heat Index: 52°   Visibility: 10mi
Dew Point: 37°   Wind: 7mph
Humidity: 57%   Direction: 240°WSW
Pressure: 29.9"   Gusts: NA
Location:  46.81°N, 100.77°W
Report Text: KBIS 230152Z AUTO 24006KT 10SM CLR 11/03 A2990 RMK AO2 SLP128 T01110028
Loading
Personal Weather Stations






























Interactive Weather Map New forecast layout! Learn more

10-Day Weather Forecast

Advertisements
Track Severe Weather on mobile